sensor_id;sensor_type;location;lat;lon;timestamp;P1;P2;P0
65574;PMS5003;52216;54.942;73.394;2022-08-19T00:02:56;0.00;0.00;0.00
65574;PMS5003;52216;54.942;73.394;2022-08-19T00:05:59;0.00;0.00;0.00
65574;PMS5003;52216;54.942;73.394;2022-08-19T00:09:25;0.00;0.00;0.00
65574;PMS5003;52216;54.942;73.394;2022-08-19T00:12:28;0.00;0.00;0.00
65574;PMS5003;52216;54.942;73.394;2022-08-19T00:15:31;0.00;0.00;0.00
65574;PMS5003;52216;54.942;73.394;2022-08-19T00:18:34;0.00;0.00;0.00
65574;PMS5003;52216;54.942;73.394;2022-08-19T00:21:38;0.00;0.00;0.00
65574;PMS5003;52216;54.942;73.394;2022-08-19T00:24:47;0.00;0.00;0.00
65574;PMS5003;52216;54.942;73.394;2022-08-19T00:27:50;0.00;0.00;0.00
65574;PMS5003;52216;54.942;73.394;2022-08-19T00:30:53;0.00;0.00;0.00
65574;PMS5003;52216;54.942;73.394;2022-08-19T00:34:01;0.00;0.00;0.00
65574;PMS5003;52216;54.942;73.394;2022-08-19T00:37:04;0.00;0.00;0.00
65574;PMS5003;52216;54.942;73.394;2022-08-19T00:40:07;0.00;0.00;0.00
65574;PMS5003;52216;54.942;73.394;2022-08-19T00:43:10;0.00;0.00;0.00
65574;PMS5003;52216;54.942;73.394;2022-08-19T00:46:15;0.00;0.00;0.00
65574;PMS5003;52216;54.942;73.394;2022-08-19T00:49:20;0.00;0.00;0.00
65574;PMS5003;52216;54.942;73.394;2022-08-19T00:52:26;0.00;0.00;0.00
65574;PMS5003;52216;54.942;73.394;2022-08-19T00:55:36;0.00;0.00;0.00
65574;PMS5003;52216;54.942;73.394;2022-08-19T00:58:40;0.00;0.00;0.00
65574;PMS5003;52216;54.942;73.394;2022-08-19T01:01:43;0.00;0.00;0.00
65574;PMS5003;52216;54.942;73.394;2022-08-19T01:04:47;0.00;0.00;0.00
65574;PMS5003;52216;54.942;73.394;2022-08-19T01:07:50;0.00;0.00;0.00
65574;PMS5003;52216;54.942;73.394;2022-08-19T01:10:54;0.00;0.00;0.00
65574;PMS5003;52216;54.942;73.394;2022-08-19T01:14:08;0.00;0.00;0.00
65574;PMS5003;52216;54.942;73.394;2022-08-19T01:17:12;0.00;0.00;0.00
65574;PMS5003;52216;54.942;73.394;2022-08-19T01:20:17;0.00;0.00;0.00
65574;PMS5003;52216;54.942;73.394;2022-08-19T01:23:21;0.00;0.00;0.00
65574;PMS5003;52216;54.942;73.394;2022-08-19T01:26:54;0.00;0.00;0.00
65574;PMS5003;52216;54.942;73.394;2022-08-19T01:29:57;0.00;0.00;0.00
65574;PMS5003;52216;54.942;73.394;2022-08-19T01:33:01;0.00;0.00;0.00
65574;PMS5003;52216;54.942;73.394;2022-08-19T01:36:15;1.25;1.00;0.00
65574;PMS5003;52216;54.942;73.394;2022-08-19T01:39:21;1.00;0.00;0.00
65574;PMS5003;52216;54.942;73.394;2022-08-19T01:42:25;1.00;1.00;0.00
65574;PMS5003;52216;54.942;73.394;2022-08-19T01:45:29;0.00;0.00;0.00
65574;PMS5003;52216;54.942;73.394;2022-08-19T01:48:42;0.00;0.00;0.00
65574;PMS5003;52216;54.942;73.394;2022-08-19T01:51:50;1.00;0.00;0.00
65574;PMS5003;52216;54.942;73.394;2022-08-19T01:54:53;0.00;0.00;0.00
65574;PMS5003;52216;54.942;73.394;2022-08-19T01:58:02;0.00;0.00;0.00
65574;PMS5003;52216;54.942;73.394;2022-08-19T02:01:08;0.00;0.00;0.00
65574;PMS5003;52216;54.942;73.394;2022-08-19T02:04:16;0.00;0.00;0.00
65574;PMS5003;52216;54.942;73.394;2022-08-19T02:07:19;0.00;0.00;0.00
65574;PMS5003;52216;54.942;73.394;2022-08-19T02:10:37;0.00;0.00;0.00
65574;PMS5003;52216;54.942;73.394;2022-08-19T02:13:45;0.00;0.00;0.00
65574;PMS5003;52216;54.942;73.394;2022-08-19T02:16:48;0.00;0.00;0.00
65574;PMS5003;52216;54.942;73.394;2022-08-19T02:19:52;0.00;0.00;0.00
65574;PMS5003;52216;54.942;73.394;2022-08-19T02:23:00;0.00;0.00;0.00
65574;PMS5003;52216;54.942;73.394;2022-08-19T02:26:14;0.00;0.00;0.00
65574;PMS5003;52216;54.942;73.394;2022-08-19T02:29:17;0.00;0.00;0.00
65574;PMS5003;52216;54.942;73.394;2022-08-19T02:32:19;0.00;0.00;0.00
65574;PMS5003;52216;54.942;73.394;2022-08-19T02:35:22;0.00;0.00;0.00
65574;PMS5003;52216;54.942;73.394;2022-08-19T02:38:26;0.00;0.00;0.00
65574;PMS5003;52216;54.942;73.394;2022-08-19T02:41:39;1.25;0.25;0.00
65574;PMS5003;52216;54.942;73.394;2022-08-19T02:44:41;3.00;2.25;0.00
65574;PMS5003;52216;54.942;73.394;2022-08-19T02:47:44;4.75;4.00;0.00
65574;PMS5003;52216;54.942;73.394;2022-08-19T02:50:48;5.25;4.25;0.00
65574;PMS5003;52216;54.942;73.394;2022-08-19T02:54:03;4.00;3.00;0.00
65574;PMS5003;52216;54.942;73.394;2022-08-19T02:57:06;3.00;1.00;0.00
65574;PMS5003;52216;54.942;73.394;2022-08-19T03:00:10;3.00;2.00;0.00
65574;PMS5003;52216;54.942;73.394;2022-08-19T03:03:16;1.00;1.00;0.00
65574;PMS5003;52216;54.942;73.394;2022-08-19T03:06:19;1.00;1.00;0.00
65574;PMS5003;52216;54.942;73.394;2022-08-19T03:09:23;0.00;0.00;0.00
65574;PMS5003;52216;54.942;73.394;2022-08-19T03:12:26;2.00;1.25;0.00
65574;PMS5003;52216;54.942;73.394;2022-08-19T03:15:39;1.00;1.00;0.00
65574;PMS5003;52216;54.942;73.394;2022-08-19T03:18:42;0.00;0.00;0.00
65574;PMS5003;52216;54.942;73.394;2022-08-19T03:21:50;0.00;0.00;0.00
65574;PMS5003;52216;54.942;73.394;2022-08-19T03:24:54;0.00;0.00;0.00
65574;PMS5003;52216;54.942;73.394;2022-08-19T03:28:02;0.00;0.00;0.00
65574;PMS5003;52216;54.942;73.394;2022-08-19T03:31:07;0.00;0.00;0.00
65574;PMS5003;52216;54.942;73.394;2022-08-19T03:34:12;0.00;0.00;0.00
65574;PMS5003;52216;54.942;73.394;2022-08-19T03:37:15;0.00;0.00;0.00
65574;PMS5003;52216;54.942;73.394;2022-08-19T03:40:29;0.00;0.00;0.00
65574;PMS5003;52216;54.942;73.394;2022-08-19T03:43:44;0.00;0.00;0.00
65574;PMS5003;52216;54.942;73.394;2022-08-19T03:46:52;0.00;0.00;0.00
65574;PMS5003;52216;54.942;73.394;2022-08-19T03:49:55;0.00;0.00;0.00
65574;PMS5003;52216;54.942;73.394;2022-08-19T03:53:03;0.00;0.00;0.00
65574;PMS5003;52216;54.942;73.394;2022-08-19T03:56:11;0.50;0.00;0.00
65574;PMS5003;52216;54.942;73.394;2022-08-19T03:59:16;0.00;0.00;0.00
65574;PMS5003;52216;54.942;73.394;2022-08-19T04:02:30;0.00;0.00;0.00
65574;PMS5003;52216;54.942;73.394;2022-08-19T04:05:33;0.00;0.00;0.00
65574;PMS5003;52216;54.942;73.394;2022-08-19T04:08:47;0.00;0.00;0.00
65574;PMS5003;52216;54.942;73.394;2022-08-19T04:11:57;0.00;0.00;0.00
65574;PMS5003;52216;54.942;73.394;2022-08-19T04:15:00;0.00;0.00;0.00
65574;PMS5003;52216;54.942;73.394;2022-08-19T04:18:03;0.00;0.00;0.00
65574;PMS5003;52216;54.942;73.394;2022-08-19T04:21:18;1.00;0.25;0.00
65574;PMS5003;52216;54.942;73.394;2022-08-19T04:24:22;0.00;0.00;0.00
65574;PMS5003;52216;54.942;73.394;2022-08-19T04:27:25;0.00;0.00;0.00
65574;PMS5003;52216;54.942;73.394;2022-08-19T04:30:37;0.00;0.00;0.00
65574;PMS5003;52216;54.942;73.394;2022-08-19T04:33:50;0.00;0.00;0.00
65574;PMS5003;52216;54.942;73.394;2022-08-19T04:36:55;1.00;0.00;0.00
65574;PMS5003;52216;54.942;73.394;2022-08-19T04:39:58;0.00;0.00;0.00
65574;PMS5003;52216;54.942;73.394;2022-08-19T04:43:30;0.00;0.00;0.00
65574;PMS5003;52216;54.942;73.394;2022-08-19T04:46:33;0.00;0.00;0.00
65574;PMS5003;52216;54.942;73.394;2022-08-19T04:49:37;0.00;0.00;0.00
65574;PMS5003;52216;54.942;73.394;2022-08-19T04:52:40;1.00;1.00;0.00
65574;PMS5003;52216;54.942;73.394;2022-08-19T04:55:56;1.00;1.00;0.00
65574;PMS5003;52216;54.942;73.394;2022-08-19T04:58:59;3.00;2.00;0.00
65574;PMS5003;52216;54.942;73.394;2022-08-19T05:02:11;2.00;1.00;0.00
65574;PMS5003;52216;54.942;73.394;2022-08-19T05:05:14;3.00;3.00;0.00
65574;PMS5003;52216;54.942;73.394;2022-08-19T05:08:18;2.00;1.00;0.00
65574;PMS5003;52216;54.942;73.394;2022-08-19T05:11:35;1.50;1.50;0.00
65574;PMS5003;52216;54.942;73.394;2022-08-19T05:14:41;2.00;2.00;0.00
65574;PMS5003;52216;54.942;73.394;2022-08-19T05:17:44;2.00;2.00;0.00
65574;PMS5003;52216;54.942;73.394;2022-08-19T05:21:07;3.00;2.50;0.00
65574;PMS5003;52216;54.942;73.394;2022-08-19T05:24:40;2.00;1.00;0.00
65574;PMS5003;52216;54.942;73.394;2022-08-19T05:27:43;2.00;1.00;0.00
65574;PMS5003;52216;54.942;73.394;2022-08-19T05:30:46;1.25;1.25;0.00
65574;PMS5003;52216;54.942;73.394;2022-08-19T05:33:50;2.00;1.25;0.00
65574;PMS5003;52216;54.942;73.394;2022-08-19T05:37:02;3.00;2.00;0.00
65574;PMS5003;52216;54.942;73.394;2022-08-19T05:40:05;2.00;1.00;0.00
65574;PMS5003;52216;54.942;73.394;2022-08-19T05:43:08;1.00;1.00;0.00
65574;PMS5003;52216;54.942;73.394;2022-08-19T05:46:18;2.00;2.00;0.00
65574;PMS5003;52216;54.942;73.394;2022-08-19T05:49:22;0.00;0.00;0.00
65574;PMS5003;52216;54.942;73.394;2022-08-19T05:52:25;0.00;0.00;0.00
65574;PMS5003;52216;54.942;73.394;2022-08-19T05:55:29;0.00;0.00;0.00
65574;PMS5003;52216;54.942;73.394;2022-08-19T05:58:33;0.00;0.00;0.00
65574;PMS5003;52216;54.942;73.394;2022-08-19T06:01:37;0.00;0.00;0.00
65574;PMS5003;52216;54.942;73.394;2022-08-19T06:04:51;0.00;0.00;0.00
65574;PMS5003;52216;54.942;73.394;2022-08-19T06:07:54;0.00;0.00;0.00
65574;PMS5003;52216;54.942;73.394;2022-08-19T06:10:58;0.25;0.00;0.00
65574;PMS5003;52216;54.942;73.394;2022-08-19T06:14:09;1.00;0.00;0.00
65574;PMS5003;52216;54.942;73.394;2022-08-19T06:17:17;0.00;0.00;0.00
65574;PMS5003;52216;54.942;73.394;2022-08-19T06:20:20;0.00;0.00;0.00
65574;PMS5003;52216;54.942;73.394;2022-08-19T06:23:23;0.00;0.00;0.00
65574;PMS5003;52216;54.942;73.394;2022-08-19T06:26:38;0.00;0.00;0.00
65574;PMS5003;52216;54.942;73.394;2022-08-19T06:29:51;0.00;0.00;0.00
65574;PMS5003;52216;54.942;73.394;2022-08-19T06:32:54;0.00;0.00;0.00
65574;PMS5003;52216;54.942;73.394;2022-08-19T06:35:57;0.00;0.00;0.00
65574;PMS5003;52216;54.942;73.394;2022-08-19T06:39:02;2.00;1.00;0.00
65574;PMS5003;52216;54.942;73.394;2022-08-19T06:42:07;0.25;0.00;0.00
65574;PMS5003;52216;54.942;73.394;2022-08-19T06:45:12;0.00;0.00;0.00
65574;PMS5003;52216;54.942;73.394;2022-08-19T06:48:15;1.25;0.00;0.00
65574;PMS5003;52216;54.942;73.394;2022-08-19T06:51:18;1.00;0.00;0.00
65574;PMS5003;52216;54.942;73.394;2022-08-19T06:54:32;0.00;0.00;0.00
65574;PMS5003;52216;54.942;73.394;2022-08-19T06:57:35;1.00;0.00;0.00
65574;PMS5003;52216;54.942;73.394;2022-08-19T07:00:38;2.50;0.00;0.00
65574;PMS5003;52216;54.942;73.394;2022-08-19T07:03:41;1.00;0.00;0.00
65574;PMS5003;52216;54.942;73.394;2022-08-19T07:07:02;1.00;0.00;0.00
65574;PMS5003;52216;54.942;73.394;2022-08-19T07:10:06;1.00;0.50;0.00
65574;PMS5003;52216;54.942;73.394;2022-08-19T07:13:09;1.00;1.00;0.00
65574;PMS5003;52216;54.942;73.394;2022-08-19T07:16:34;0.00;0.00;0.00
65574;PMS5003;52216;54.942;73.394;2022-08-19T07:19:47;0.75;0.75;0.00
65574;PMS5003;52216;54.942;73.394;2022-08-19T07:22:50;0.00;0.00;0.00
65574;PMS5003;52216;54.942;73.394;2022-08-19T07:25:53;0.00;0.00;0.00
65574;PMS5003;52216;54.942;73.394;2022-08-19T07:28:56;0.00;0.00;0.00
65574;PMS5003;52216;54.942;73.394;2022-08-19T07:32:10;0.00;0.00;0.00
65574;PMS5003;52216;54.942;73.394;2022-08-19T07:35:14;1.00;0.00;0.00
65574;PMS5003;52216;54.942;73.394;2022-08-19T07:38:19;1.00;0.00;0.00
65574;PMS5003;52216;54.942;73.394;2022-08-19T07:41:23;2.00;1.00;0.00
65574;PMS5003;52216;54.942;73.394;2022-08-19T07:44:32;2.00;1.00;0.00
65574;PMS5003;52216;54.942;73.394;2022-08-19T07:47:36;2.00;1.00;0.00
65574;PMS5003;52216;54.942;73.394;2022-08-19T07:50:40;3.00;3.00;0.00
65574;PMS5003;52216;54.942;73.394;2022-08-19T07:53:43;3.00;3.00;0.00
65574;PMS5003;52216;54.942;73.394;2022-08-19T07:56:53;2.00;2.00;0.00
65574;PMS5003;52216;54.942;73.394;2022-08-19T07:59:56;3.00;3.00;0.00
65574;PMS5003;52216;54.942;73.394;2022-08-19T08:02:59;2.00;2.00;0.00
65574;PMS5003;52216;54.942;73.394;2022-08-19T08:06:02;2.00;1.50;0.00
65574;PMS5003;52216;54.942;73.394;2022-08-19T08:09:32;0.00;0.00;0.00
65574;PMS5003;52216;54.942;73.394;2022-08-19T08:12:41;1.00;1.00;0.00
65574;PMS5003;52216;54.942;73.394;2022-08-19T08:15:44;0.00;0.00;0.00
65574;PMS5003;52216;54.942;73.394;2022-08-19T08:18:47;0.00;0.00;0.00
65574;PMS5003;52216;54.942;73.394;2022-08-19T08:21:56;1.00;1.00;0.00
65574;PMS5003;52216;54.942;73.394;2022-08-19T08:25:10;1.00;1.00;0.00
65574;PMS5003;52216;54.942;73.394;2022-08-19T08:28:22;2.75;2.75;0.00
65574;PMS5003;52216;54.942;73.394;2022-08-19T08:31:25;3.25;3.00;1.00
65574;PMS5003;52216;54.942;73.394;2022-08-19T08:34:28;3.50;3.50;1.00
65574;PMS5003;52216;54.942;73.394;2022-08-19T08:37:31;2.00;2.00;0.00
65574;PMS5003;52216;54.942;73.394;2022-08-19T08:43:44;2.00;1.00;0.00
65574;PMS5003;52216;54.942;73.394;2022-08-19T08:46:59;1.00;1.00;0.00
65574;PMS5003;52216;54.942;73.394;2022-08-19T08:50:06;1.00;1.00;0.00
65574;PMS5003;52216;54.942;73.394;2022-08-19T08:53:14;3.50;2.00;0.00
65574;PMS5003;52216;54.942;73.394;2022-08-19T08:56:18;2.75;2.75;0.00
65574;PMS5003;52216;54.942;73.394;2022-08-19T09:02:26;0.00;0.00;0.00
65574;PMS5003;52216;54.942;73.394;2022-08-19T09:05:55;0.50;0.50;0.00
65574;PMS5003;52216;54.942;73.394;2022-08-19T09:12:07;2.00;2.00;0.00
65574;PMS5003;52216;54.942;73.394;2022-08-19T09:15:13;2.00;2.00;0.00
65574;PMS5003;52216;54.942;73.394;2022-08-19T09:18:17;2.00;1.00;0.00
65574;PMS5003;52216;54.942;73.394;2022-08-19T09:21:21;1.00;1.00;0.00
65574;PMS5003;52216;54.942;73.394;2022-08-19T09:24:25;2.00;2.00;0.00
65574;PMS5003;52216;54.942;73.394;2022-08-19T09:27:28;2.50;2.00;0.00
65574;PMS5003;52216;54.942;73.394;2022-08-19T09:30:34;1.00;1.00;0.00
65574;PMS5003;52216;54.942;73.394;2022-08-19T09:33:37;1.00;0.00;0.00
65574;PMS5003;52216;54.942;73.394;2022-08-19T09:36:40;0.00;0.00;0.00
65574;PMS5003;52216;54.942;73.394;2022-08-19T09:39:43;1.00;1.00;0.00
65574;PMS5003;52216;54.942;73.394;2022-08-19T09:42:51;0.00;0.00;0.00
65574;PMS5003;52216;54.942;73.394;2022-08-19T09:45:55;1.00;0.00;0.00
65574;PMS5003;52216;54.942;73.394;2022-08-19T09:48:58;1.00;1.00;0.00
65574;PMS5003;52216;54.942;73.394;2022-08-19T09:52:02;2.00;2.00;0.00
65574;PMS5003;52216;54.942;73.394;2022-08-19T09:55:05;1.50;1.25;0.00
65574;PMS5003;52216;54.942;73.394;2022-08-19T09:58:09;2.00;1.00;0.00
65574;PMS5003;52216;54.942;73.394;2022-08-19T10:01:17;7.00;5.25;0.00
65574;PMS5003;52216;54.942;73.394;2022-08-19T10:04:26;6.00;6.00;0.00
65574;PMS5003;52216;54.942;73.394;2022-08-19T10:07:49;7.00;6.00;2.00
65574;PMS5003;52216;54.942;73.394;2022-08-19T10:10:53;8.00;8.00;3.00
65574;PMS5003;52216;54.942;73.394;2022-08-19T10:13:57;7.00;7.00;4.00
65574;PMS5003;52216;54.942;73.394;2022-08-19T10:17:05;7.00;7.00;3.50
65574;PMS5003;52216;54.942;73.394;2022-08-19T10:20:08;9.00;8.00;2.75
65574;PMS5003;52216;54.942;73.394;2022-08-19T10:23:12;10.00;10.00;4.00
65574;PMS5003;52216;54.942;73.394;2022-08-19T10:26:15;12.00;8.67;3.00
65574;PMS5003;52216;54.942;73.394;2022-08-19T10:29:18;7.00;7.00;3.00
65574;PMS5003;52216;54.942;73.394;2022-08-19T10:32:21;7.00;7.00;4.00
65574;PMS5003;52216;54.942;73.394;2022-08-19T10:35:23;8.00;8.00;3.00
65574;PMS5003;52216;54.942;73.394;2022-08-19T10:38:31;10.00;8.00;4.00
65574;PMS5003;52216;54.942;73.394;2022-08-19T10:41:38;10.33;8.00;2.67
65574;PMS5003;52216;54.942;73.394;2022-08-19T10:44:44;6.00;6.00;1.00
65574;PMS5003;52216;54.942;73.394;2022-08-19T10:47:47;7.00;7.00;1.00
65574;PMS5003;52216;54.942;73.394;2022-08-19T10:50:50;8.75;8.00;1.00
65574;PMS5003;52216;54.942;73.394;2022-08-19T10:54:12;8.00;8.00;2.00
65574;PMS5003;52216;54.942;73.394;2022-08-19T10:57:15;6.00;5.25;2.00
65574;PMS5003;52216;54.942;73.394;2022-08-19T11:00:24;2.75;2.75;1.00
65574;PMS5003;52216;54.942;73.394;2022-08-19T11:03:27;5.00;5.00;1.00
65574;PMS5003;52216;54.942;73.394;2022-08-19T11:06:42;4.00;3.00;0.75
65574;PMS5003;52216;54.942;73.394;2022-08-19T11:09:51;3.00;3.00;0.00
65574;PMS5003;52216;54.942;73.394;2022-08-19T11:12:54;3.00;2.00;0.00
65574;PMS5003;52216;54.942;73.394;2022-08-19T11:15:58;4.25;2.00;0.00
65574;PMS5003;52216;54.942;73.394;2022-08-19T11:19:07;5.00;3.00;0.00
65574;PMS5003;52216;54.942;73.394;2022-08-19T11:22:10;3.25;3.25;0.00
65574;PMS5003;52216;54.942;73.394;2022-08-19T11:25:13;5.00;5.00;0.00
65574;PMS5003;52216;54.942;73.394;2022-08-19T11:28:16;4.00;3.00;1.00
65574;PMS5003;52216;54.942;73.394;2022-08-19T11:31:28;6.00;4.00;1.00
65574;PMS5003;52216;54.942;73.394;2022-08-19T11:34:33;5.00;4.00;1.00
65574;PMS5003;52216;54.942;73.394;2022-08-19T11:37:37;5.00;4.75;2.00
65574;PMS5003;52216;54.942;73.394;2022-08-19T11:40:40;5.00;5.00;2.00
65574;PMS5003;52216;54.942;73.394;2022-08-19T11:43:45;7.00;5.00;2.00
65574;PMS5003;52216;54.942;73.394;2022-08-19T11:46:48;5.25;4.75;1.00
65574;PMS5003;52216;54.942;73.394;2022-08-19T11:49:51;5.00;5.00;1.00
65574;PMS5003;52216;54.942;73.394;2022-08-19T11:52:56;3.00;3.00;1.00
65574;PMS5003;52216;54.942;73.394;2022-08-19T11:55:59;4.00;3.00;1.00
65574;PMS5003;52216;54.942;73.394;2022-08-19T11:59:03;3.00;2.00;0.00
65574;PMS5003;52216;54.942;73.394;2022-08-19T12:02:06;1.00;1.00;0.00
65574;PMS5003;52216;54.942;73.394;2022-08-19T12:05:09;2.00;2.00;0.00
65574;PMS5003;52216;54.942;73.394;2022-08-19T12:08:21;2.00;2.00;0.00
65574;PMS5003;52216;54.942;73.394;2022-08-19T12:11:38;0.00;0.00;0.00
65574;PMS5003;52216;54.942;73.394;2022-08-19T12:14:50;2.00;1.00;0.00
65574;PMS5003;52216;54.942;73.394;2022-08-19T12:17:58;3.00;2.00;0.00
65574;PMS5003;52216;54.942;73.394;2022-08-19T12:21:01;3.00;3.00;0.00
65574;PMS5003;52216;54.942;73.394;2022-08-19T12:24:05;2.00;1.00;0.00
65574;PMS5003;52216;54.942;73.394;2022-08-19T12:27:09;0.00;0.00;0.00
65574;PMS5003;52216;54.942;73.394;2022-08-19T12:30:12;2.75;1.00;0.00
65574;PMS5003;52216;54.942;73.394;2022-08-19T12:33:15;2.00;2.00;0.00
65574;PMS5003;52216;54.942;73.394;2022-08-19T12:36:29;1.00;1.00;0.00
65574;PMS5003;52216;54.942;73.394;2022-08-19T12:39:38;1.00;1.00;0.00
65574;PMS5003;52216;54.942;73.394;2022-08-19T12:42:41;2.50;2.25;0.00
65574;PMS5003;52216;54.942;73.394;2022-08-19T12:45:44;4.00;3.00;0.00
65574;PMS5003;52216;54.942;73.394;2022-08-19T12:48:47;5.00;4.00;0.00
65574;PMS5003;52216;54.942;73.394;2022-08-19T12:51:50;2.75;2.00;0.00
65574;PMS5003;52216;54.942;73.394;2022-08-19T12:54:55;2.00;2.00;0.00
65574;PMS5003;52216;54.942;73.394;2022-08-19T12:57:58;2.00;2.00;0.00
65574;PMS5003;52216;54.942;73.394;2022-08-19T13:01:10;3.00;2.00;0.00
65574;PMS5003;52216;54.942;73.394;2022-08-19T13:04:13;4.00;4.00;0.00
65574;PMS5003;52216;54.942;73.394;2022-08-19T13:07:16;3.00;3.00;0.00
65574;PMS5003;52216;54.942;73.394;2022-08-19T13:10:19;4.75;3.50;0.00
65574;PMS5003;52216;54.942;73.394;2022-08-19T13:13:23;5.00;4.00;0.00
65574;PMS5003;52216;54.942;73.394;2022-08-19T13:16:27;2.75;2.50;0.00
65574;PMS5003;52216;54.942;73.394;2022-08-19T13:19:30;5.00;4.75;1.00
65574;PMS5003;52216;54.942;73.394;2022-08-19T13:22:34;3.50;3.50;1.25
65574;PMS5003;52216;54.942;73.394;2022-08-19T13:25:38;3.50;2.50;1.00
65574;PMS5003;52216;54.942;73.394;2022-08-19T13:28:46;4.00;3.00;1.00
65574;PMS5003;52216;54.942;73.394;2022-08-19T13:32:08;4.50;3.00;1.00
65574;PMS5003;52216;54.942;73.394;2022-08-19T13:35:43;2.00;2.00;1.00
65574;PMS5003;52216;54.942;73.394;2022-08-19T13:38:51;3.00;3.00;1.00
65574;PMS5003;52216;54.942;73.394;2022-08-19T13:42:04;1.50;1.50;0.00
65574;PMS5003;52216;54.942;73.394;2022-08-19T13:45:09;2.00;2.00;0.00
65574;PMS5003;52216;54.942;73.394;2022-08-19T13:48:18;3.00;3.00;0.00
65574;PMS5003;52216;54.942;73.394;2022-08-19T13:51:21;3.00;2.00;0.00
65574;PMS5003;52216;54.942;73.394;2022-08-19T13:54:24;2.00;1.00;0.00
65574;PMS5003;52216;54.942;73.394;2022-08-19T13:57:29;1.25;1.00;0.00
65574;PMS5003;52216;54.942;73.394;2022-08-19T14:00:34;2.00;2.00;0.00
65574;PMS5003;52216;54.942;73.394;2022-08-19T14:03:48;3.00;1.00;0.00
65574;PMS5003;52216;54.942;73.394;2022-08-19T14:06:51;1.75;0.00;0.00
65574;PMS5003;52216;54.942;73.394;2022-08-19T14:09:55;1.00;1.00;0.00
65574;PMS5003;52216;54.942;73.394;2022-08-19T14:13:00;1.50;1.50;0.00
65574;PMS5003;52216;54.942;73.394;2022-08-19T14:16:08;2.00;2.00;0.00
65574;PMS5003;52216;54.942;73.394;2022-08-19T14:19:11;3.00;3.00;0.00
65574;PMS5003;52216;54.942;73.394;2022-08-19T14:22:14;2.00;1.00;0.00
65574;PMS5003;52216;54.942;73.394;2022-08-19T14:25:18;3.00;2.75;0.00
65574;PMS5003;52216;54.942;73.394;2022-08-19T14:28:21;2.00;2.00;0.00
65574;PMS5003;52216;54.942;73.394;2022-08-19T14:31:24;3.00;3.00;0.00
65574;PMS5003;52216;54.942;73.394;2022-08-19T14:34:28;3.00;3.00;0.00
65574;PMS5003;52216;54.942;73.394;2022-08-19T14:37:31;4.00;3.75;0.00
65574;PMS5003;52216;54.942;73.394;2022-08-19T14:40:35;4.75;4.00;0.00
65574;PMS5003;52216;54.942;73.394;2022-08-19T14:43:38;4.00;4.00;0.00
65574;PMS5003;52216;54.942;73.394;2022-08-19T14:46:41;3.75;3.00;1.00
65574;PMS5003;52216;54.942;73.394;2022-08-19T14:49:44;4.50;4.50;0.00
65574;PMS5003;52216;54.942;73.394;2022-08-19T14:52:47;4.00;4.00;0.00
65574;PMS5003;52216;54.942;73.394;2022-08-19T14:55:55;4.00;3.00;0.00
65574;PMS5003;52216;54.942;73.394;2022-08-19T14:59:00;4.00;3.00;0.00
65574;PMS5003;52216;54.942;73.394;2022-08-19T15:02:03;4.00;4.00;0.00
65574;PMS5003;52216;54.942;73.394;2022-08-19T15:05:15;5.75;4.75;0.00
65574;PMS5003;52216;54.942;73.394;2022-08-19T15:08:23;4.00;3.00;0.00
65574;PMS5003;52216;54.942;73.394;2022-08-19T15:11:27;2.00;2.00;0.00
65574;PMS5003;52216;54.942;73.394;2022-08-19T15:14:30;6.00;3.75;0.00
65574;PMS5003;52216;54.942;73.394;2022-08-19T15:17:46;4.00;3.00;0.00
65574;PMS5003;52216;54.942;73.394;2022-08-19T15:20:54;3.50;2.25;0.00
65574;PMS5003;52216;54.942;73.394;2022-08-19T15:23:58;2.75;2.75;0.00
65574;PMS5003;52216;54.942;73.394;2022-08-19T15:27:08;2.00;2.00;0.00
65574;PMS5003;52216;54.942;73.394;2022-08-19T15:30:11;2.00;2.00;0.00
65574;PMS5003;52216;54.942;73.394;2022-08-19T15:33:15;4.00;3.00;0.00
65574;PMS5003;52216;54.942;73.394;2022-08-19T15:36:19;4.00;4.00;0.00
65574;PMS5003;52216;54.942;73.394;2022-08-19T15:39:22;4.00;4.00;0.00
65574;PMS5003;52216;54.942;73.394;2022-08-19T15:42:26;4.00;4.00;0.00
65574;PMS5003;52216;54.942;73.394;2022-08-19T15:45:34;5.50;4.00;0.00
65574;PMS5003;52216;54.942;73.394;2022-08-19T15:48:37;5.00;5.00;0.00
65574;PMS5003;52216;54.942;73.394;2022-08-19T15:51:41;4.00;3.25;0.00
65574;PMS5003;52216;54.942;73.394;2022-08-19T15:54:45;5.00;4.00;0.00
65574;PMS5003;52216;54.942;73.394;2022-08-19T15:57:48;5.25;5.00;0.00
65574;PMS5003;52216;54.942;73.394;2022-08-19T16:01:09;5.00;5.00;1.00
65574;PMS5003;52216;54.942;73.394;2022-08-19T16:04:31;4.00;4.00;0.00
65574;PMS5003;52216;54.942;73.394;2022-08-19T16:07:56;4.00;4.00;0.50
65574;PMS5003;52216;54.942;73.394;2022-08-19T16:10:59;5.00;5.00;1.00
65574;PMS5003;52216;54.942;73.394;2022-08-19T16:14:02;4.00;3.00;0.00
65574;PMS5003;52216;54.942;73.394;2022-08-19T16:17:05;6.00;4.00;0.00
65574;PMS5003;52216;54.942;73.394;2022-08-19T16:20:09;5.00;4.00;1.00
65574;PMS5003;52216;54.942;73.394;2022-08-19T16:23:12;7.00;6.75;1.00
65574;PMS5003;52216;54.942;73.394;2022-08-19T16:26:25;5.00;5.00;1.00
65574;PMS5003;52216;54.942;73.394;2022-08-19T16:29:42;4.00;3.75;1.00
65574;PMS5003;52216;54.942;73.394;2022-08-19T16:32:45;5.00;5.00;1.25
65574;PMS5003;52216;54.942;73.394;2022-08-19T16:35:51;7.50;7.00;2.00
65574;PMS5003;52216;54.942;73.394;2022-08-19T16:38:54;3.00;3.00;1.00
65574;PMS5003;52216;54.942;73.394;2022-08-19T16:42:08;6.25;5.25;1.00
65574;PMS5003;52216;54.942;73.394;2022-08-19T16:45:11;6.75;6.25;1.00
65574;PMS5003;52216;54.942;73.394;2022-08-19T16:48:14;4.00;4.00;2.00
65574;PMS5003;52216;54.942;73.394;2022-08-19T16:51:18;6.00;6.00;2.50
65574;PMS5003;52216;54.942;73.394;2022-08-19T16:54:21;7.00;6.50;3.00
65574;PMS5003;52216;54.942;73.394;2022-08-19T16:57:24;7.00;6.00;2.00
65574;PMS5003;52216;54.942;73.394;2022-08-19T17:00:27;8.00;7.00;3.00
65574;PMS5003;52216;54.942;73.394;2022-08-19T17:03:31;5.75;5.75;2.00
65574;PMS5003;52216;54.942;73.394;2022-08-19T17:06:44;5.50;5.50;2.00
65574;PMS5003;52216;54.942;73.394;2022-08-19T17:09:48;6.50;5.75;1.00
65574;PMS5003;52216;54.942;73.394;2022-08-19T17:12:52;4.75;4.00;1.00
65574;PMS5003;52216;54.942;73.394;2022-08-19T17:16:06;6.25;6.25;3.00
65574;PMS5003;52216;54.942;73.394;2022-08-19T17:19:14;6.50;6.00;2.00
65574;PMS5003;52216;54.942;73.394;2022-08-19T17:22:18;5.75;5.75;2.00
65574;PMS5003;52216;54.942;73.394;2022-08-19T17:25:22;7.00;7.00;2.00
65574;PMS5003;52216;54.942;73.394;2022-08-19T17:28:27;7.00;6.00;2.00
65574;PMS5003;52216;54.942;73.394;2022-08-19T17:31:40;7.00;7.00;2.00
65574;PMS5003;52216;54.942;73.394;2022-08-19T17:34:43;6.00;6.00;2.00
65574;PMS5003;52216;54.942;73.394;2022-08-19T17:37:46;7.75;7.00;4.00
65574;PMS5003;52216;54.942;73.394;2022-08-19T17:40:55;7.00;7.00;2.25
65574;PMS5003;52216;54.942;73.394;2022-08-19T17:44:06;5.75;5.25;1.00
65574;PMS5003;52216;54.942;73.394;2022-08-19T17:47:20;7.00;6.50;2.00
65574;PMS5003;52216;54.942;73.394;2022-08-19T17:50:23;7.75;7.00;3.00
65574;PMS5003;52216;54.942;73.394;2022-08-19T17:53:32;7.00;7.00;2.00
65574;PMS5003;52216;54.942;73.394;2022-08-19T17:56:35;6.50;6.50;2.00
65574;PMS5003;52216;54.942;73.394;2022-08-19T17:59:39;5.50;5.00;2.00
65574;PMS5003;52216;54.942;73.394;2022-08-19T18:02:46;6.00;6.00;2.00
65574;PMS5003;52216;54.942;73.394;2022-08-19T18:05:55;7.00;7.00;2.25